createdAt,value
2023-03-29T00:03:07.832Z,76.71
2023-03-29T00:09:10.582Z,76.44
2023-03-29T00:15:13.582Z,76.24
2023-03-29T00:21:15.642Z,74.97
2023-03-29T00:27:17.638Z,74.70
2023-03-29T00:33:20.989Z,72.32
2023-03-29T00:39:22.875Z,72.60
2023-03-29T00:45:30.509Z,73.13
2023-03-29T00:51:36.725Z,72.79
2023-03-29T00:57:41.763Z,71.15
2023-03-29T01:03:54.471Z,71.75
2023-03-29T01:10:09.448Z,72.39
2023-03-29T01:16:14.118Z,74.03
2023-03-29T01:22:33.699Z,75.16
2023-03-29T01:28:52.927Z,76.79
2023-03-29T01:35:15.910Z,78.25
2023-03-29T01:41:17.974Z,78.47
2023-03-29T01:47:34.586Z,79.36
2023-03-29T01:54:00.354Z,79.93
2023-03-29T02:00:09.918Z,80.83
2023-03-29T02:06:15.985Z,81.33
2023-03-29T02:12:19.190Z,82.48
2023-03-29T02:18:21.262Z,82.53
2023-03-29T02:24:26.158Z,84.00
2023-03-29T02:30:53.549Z,85.26
2023-03-29T02:37:06.739Z,85.96
2023-03-29T02:43:11.273Z,86.70
2023-03-29T02:49:13.619Z,86.92
2023-03-29T02:55:18.884Z,86.82
2023-03-29T03:01:20.871Z,86.98
2023-03-29T03:07:24.841Z,87.42
2023-03-29T03:13:27.036Z,87.95
2023-03-29T03:19:29.601Z,88.20
2023-03-29T03:25:32.333Z,88.47
2023-03-29T03:31:34.220Z,88.65
2023-03-29T03:37:36.212Z,89.91
2023-03-29T03:43:38.178Z,89.38
2023-03-29T03:49:40.930Z,89.80
2023-03-29T03:55:47.117Z,89.90
2023-03-29T04:01:49.004Z,89.00
2023-03-29T04:07:50.987Z,88.79
2023-03-29T04:13:52.917Z,89.00
2023-03-29T04:19:54.865Z,88.73
2023-03-29T04:25:56.827Z,89.25
2023-03-29T04:31:58.723Z,89.87
2023-03-29T04:38:00.650Z,90.10
2023-03-29T04:44:02.665Z,91.00
2023-03-29T04:50:05.325Z,91.09
2023-03-29T04:56:07.987Z,91.54
2023-03-29T05:02:09.938Z,92.21
2023-03-29T05:08:12.230Z,92.45
2023-03-29T05:14:14.244Z,92.64
2023-03-29T05:20:17.542Z,92.61
2023-03-29T05:26:19.417Z,92.67
2023-03-29T05:32:21.366Z,92.50
2023-03-29T05:38:23.374Z,92.45
2023-03-29T05:44:25.803Z,92.72
2023-03-29T05:50:27.749Z,93.19
2023-03-29T05:56:29.668Z,92.79
2023-03-29T06:02:31.608Z,91.91
2023-03-29T06:08:35.283Z,90.17
2023-03-29T06:14:37.350Z,90.68
2023-03-29T06:20:39.228Z,89.09
2023-03-29T06:26:42.017Z,88.39
2023-03-29T06:32:43.998Z,87.39
2023-03-29T06:38:46.004Z,86.03
2023-03-29T06:44:48.428Z,85.33
2023-03-29T06:50:50.795Z,83.58
2023-03-29T06:56:53.273Z,83.60
2023-03-29T07:02:58.010Z,82.01
2023-03-29T07:09:01.840Z,81.20
2023-03-29T07:15:04.525Z,80.36
2023-03-29T07:21:07.788Z,79.66
2023-03-29T07:27:10.184Z,80.15
2023-03-29T07:33:12.361Z,79.03
2023-03-29T07:39:15.606Z,79.55
2023-03-29T07:45:17.849Z,78.78
2023-03-29T07:51:19.829Z,77.04
2023-03-29T07:57:24.248Z,76.12
2023-03-29T08:03:27.673Z,75.53
2023-03-29T08:09:29.824Z,75.43
2023-03-29T08:15:32.087Z,75.79
2023-03-29T08:21:33.988Z,73.86
2023-03-29T08:27:37.504Z,72.78
2023-03-29T08:33:39.465Z,70.96
2023-03-29T08:39:41.529Z,71.34
2023-03-29T08:46:01.623Z,68.18
2023-03-29T08:52:11.981Z,66.10
2023-03-29T08:58:21.054Z,63.75
2023-03-29T09:04:31.859Z,61.51
2023-03-29T09:10:50.807Z,59.69
2023-03-29T09:17:29.566Z,60.98
2023-03-29T09:24:08.601Z,62.80
2023-03-29T09:30:41.562Z,65.20
2023-03-29T09:36:52.925Z,67.38
2023-03-29T09:42:56.091Z,69.13
2023-03-29T09:48:58.294Z,70.16
2023-03-29T09:55:03.751Z,69.00
2023-03-29T10:01:11.013Z,69.27
2023-03-29T10:07:22.774Z,68.47
2023-03-29T10:13:32.972Z,68.79
2023-03-29T10:19:36.797Z,68.74
2023-03-29T10:25:43.181Z,66.26
2023-03-29T10:31:45.196Z,64.25
2023-03-29T10:37:53.026Z,65.47
2023-03-29T10:43:55.378Z,64.39
2023-03-29T10:49:58.925Z,66.26
2023-03-29T10:56:09.640Z,66.50
2023-03-29T11:02:17.652Z,67.15
2023-03-29T11:08:42.533Z,69.65
2023-03-29T11:14:57.645Z,67.99
2023-03-29T11:21:14.458Z,65.15
2023-03-29T11:27:43.003Z,62.30
2023-03-29T11:34:11.563Z,56.91
2023-03-29T11:40:50.022Z,55.95
2023-03-29T11:47:26.774Z,58.62
2023-03-29T11:54:07.817Z,62.73
2023-03-29T12:00:34.912Z,64.62
2023-03-29T12:06:40.730Z,64.44
2023-03-29T12:13:05.854Z,62.56
2023-03-29T12:19:25.817Z,62.57
2023-03-29T12:25:59.253Z,62.05
2023-03-29T12:32:03.830Z,66.75
2023-03-29T12:38:14.160Z,70.70
2023-03-29T12:44:20.432Z,73.41
2023-03-29T12:50:32.958Z,71.23
2023-03-29T12:56:53.302Z,70.97
2023-03-29T13:03:42.748Z,74.60
2023-03-29T13:10:30.265Z,75.43
2023-03-29T13:16:35.928Z,75.27
2023-03-29T13:22:59.042Z,74.98
2023-03-29T13:29:42.689Z,74.32
2023-03-29T13:36:16.510Z,70.52
2023-03-29T13:42:59.954Z,58.80
2023-03-29T13:49:25.680Z,60.22
2023-03-29T13:55:34.420Z,61.80
2023-03-29T14:01:54.568Z,62.73
2023-03-29T14:07:59.389Z,63.97
2023-03-29T14:14:11.089Z,61.68
2023-03-29T14:20:15.650Z,63.49
2023-03-29T14:26:24.018Z,64.38
2023-03-29T14:32:31.664Z,66.47
2023-03-29T14:38:37.499Z,66.09
2023-03-29T14:44:39.845Z,67.25
2023-03-29T14:50:44.205Z,66.00
2023-03-29T14:56:48.563Z,66.08
2023-03-29T15:03:02.559Z,67.11
2023-03-29T15:09:06.737Z,67.08
2023-03-29T15:15:12.558Z,67.09
2023-03-29T15:21:18.227Z,67.38
2023-03-29T15:27:21.008Z,67.63
2023-03-29T15:33:24.205Z,67.98
2023-03-29T15:39:27.779Z,68.31
2023-03-29T15:45:29.690Z,67.43
2023-03-29T15:51:31.945Z,68.72
2023-03-29T15:57:34.573Z,68.70
2023-03-29T16:03:37.050Z,68.36
2023-03-29T16:09:39.103Z,68.70
2023-03-29T16:15:42.577Z,69.84
2023-03-29T16:21:45.066Z,70.64
2023-03-29T16:27:47.144Z,70.95
2023-03-29T16:33:49.049Z,71.55
2023-03-29T16:39:50.934Z,72.53
2023-03-29T16:45:53.321Z,72.88
2023-03-29T16:51:56.034Z,72.53
2023-03-29T16:57:57.978Z,72.05
2023-03-29T17:04:00.555Z,70.88
2023-03-29T17:10:04.784Z,71.54
2023-03-29T17:16:07.674Z,71.41
2023-03-29T17:22:09.928Z,71.42
2023-03-29T17:28:12.085Z,72.09
2023-03-29T17:34:15.726Z,72.21
2023-03-29T17:40:18.572Z,72.28
2023-03-29T17:46:22.960Z,72.88
2023-03-29T17:52:25.142Z,73.38
2023-03-29T17:58:27.112Z,74.07
2023-03-29T18:04:29.041Z,74.01
2023-03-29T18:10:31.011Z,75.24
2023-03-29T18:16:33.156Z,75.04
2023-03-29T18:22:35.090Z,76.30
2023-03-29T18:28:37.554Z,77.29
2023-03-29T18:34:39.553Z,79.39
2023-03-29T18:40:41.596Z,80.79
2023-03-29T18:46:43.580Z,81.52
2023-03-29T18:52:45.841Z,82.25
2023-03-29T18:58:48.043Z,82.67
2023-03-29T19:04:49.928Z,82.83
2023-03-29T19:10:52.681Z,83.02
2023-03-29T19:16:54.865Z,83.36
2023-03-29T19:22:56.834Z,83.00
2023-03-29T19:28:59.167Z,82.91
2023-03-29T19:35:01.072Z,82.55
2023-03-29T19:41:07.339Z,83.13
2023-03-29T19:47:09.222Z,84.03
2023-03-29T19:53:12.326Z,84.84
2023-03-29T19:59:15.025Z,84.85
2023-03-29T20:05:17.495Z,86.92
2023-03-29T20:11:23.706Z,87.09
2023-03-29T20:17:25.828Z,88.14
2023-03-29T20:23:27.983Z,88.90
2023-03-29T20:29:31.208Z,88.53
2023-03-29T20:35:33.402Z,86.07
2023-03-29T20:41:38.396Z,84.79
2023-03-29T20:47:42.248Z,85.25
2023-03-29T20:53:44.435Z,85.65
2023-03-29T20:59:49.052Z,86.15
2023-03-29T21:05:55.146Z,84.95
2023-03-29T21:11:57.030Z,85.54
2023-03-29T21:17:59.409Z,85.64
2023-03-29T21:24:01.474Z,87.12
2023-03-29T21:30:05.524Z,87.69
2023-03-29T21:36:08.309Z,88.52
2023-03-29T21:42:10.539Z,89.01
2023-03-29T21:48:12.472Z,89.33
2023-03-29T21:54:14.397Z,89.58
2023-03-29T22:00:17.876Z,90.70
2023-03-29T22:06:19.932Z,91.17
2023-03-29T22:12:22.752Z,91.32
2023-03-29T22:18:42.576Z,92.14
2023-03-29T22:24:44.654Z,91.97
2023-03-29T22:30:46.591Z,92.75
2023-03-29T22:36:48.658Z,92.16
2023-03-29T22:42:50.573Z,91.36
2023-03-29T22:48:53.077Z,92.21
2023-03-29T22:54:54.992Z,90.94
2023-03-29T23:00:57.953Z,91.90
2023-03-29T23:07:01.957Z,91.43
2023-03-29T23:13:09.969Z,92.56
2023-03-29T23:19:11.922Z,92.48
2023-03-29T23:25:13.924Z,93.21
2023-03-29T23:31:18.412Z,93.08
2023-03-29T23:37:20.456Z,93.57
2023-03-29T23:43:22.431Z,94.16
2023-03-29T23:49:24.400Z,94.57
2023-03-29T23:55:26.542Z,94.80
